Time;durP1;ratioP1;P1;durP2;ratioP2;P2;SDS_P1;SDS_P2;PMS_P1;PMS_P2;Temp;Humidity;BMP_temperature;BMP_pressure;BME280_temperature;BME280_humidity;BME280_pressure;Samples;Min_cycle;Max_cycle;Signal;HPM_P1;HPM_P2
2022/08/05 00:01:22;;;;;;;5.57;1.65;;;27.10;63.80;;;;;;5129840;27;20054;-82
2022/08/05 00:03:49;;;;;;;2.53;1.90;;;27.00;64.30;;;;;;5132837;27;20027;-82
2022/08/05 00:06:15;;;;;;;2.42;1.77;;;26.90;64.40;;;;;;5131131;27;20095;-82
2022/08/05 00:08:41;;;;;;;1.42;1.30;;;26.80;64.40;;;;;;5132724;27;20473;-82
2022/08/05 00:11:10;;;;;;;6.85;1.63;;;26.80;64.70;;;;;;5124763;27;20704;-81
2022/08/05 00:13:38;;;;;;;2.08;1.60;;;26.70;65.10;;;;;;5125654;27;20027;-80
2022/08/05 00:16:04;;;;;;;6.50;1.60;;;26.60;65.50;;;;;;5132566;27;20069;-80
2022/08/05 00:18:30;;;;;;;2.83;1.50;;;26.50;65.50;;;;;;5125884;27;20473;-80
2022/08/05 00:20:56;;;;;;;2.65;1.65;;;26.40;65.90;;;;;;5128785;27;20035;-81
2022/08/05 00:23:22;;;;;;;3.95;1.45;;;26.30;66.70;;;;;;5128271;27;20028;-81
2022/08/05 00:25:48;;;;;;;1.40;1.17;;;26.30;67.00;;;;;;5121736;27;20031;-81
2022/08/05 00:28:14;;;;;;;2.25;1.35;;;26.20;67.90;;;;;;5126207;27;20064;-81
2022/08/05 00:30:40;;;;;;;3.03;1.50;;;26.20;68.10;;;;;;5126969;27;20074;-81
2022/08/05 00:33:06;;;;;;;2.63;1.60;;;26.20;68.60;;;;;;5125819;27;20035;-80
2022/08/05 00:35:31;;;;;;;3.17;1.42;;;26.20;69.00;;;;;;5121654;27;20362;-81
2022/08/05 00:37:57;;;;;;;5.13;1.58;;;26.10;69.30;;;;;;5122113;27;20400;-81
2022/08/05 00:40:25;;;;;;;3.08;1.40;;;26.10;69.40;;;;;;5132146;27;20035;-81
2022/08/05 00:42:51;;;;;;;4.38;1.20;;;26.10;69.70;;;;;;5133059;27;20027;-81
2022/08/05 00:45:17;;;;;;;2.45;1.50;;;26.00;70.10;;;;;;5132882;27;20404;-81
2022/08/05 00:47:42;;;;;;;7.00;1.88;;;25.90;70.50;;;;;;5131294;27;20057;-81
2022/08/05 00:50:08;;;;;;;6.10;1.50;;;25.80;71.20;;;;;;5126843;27;20047;-80
2022/08/05 00:52:34;;;;;;;4.72;1.38;;;25.80;71.30;;;;;;5128196;27;20035;-81
2022/08/05 00:54:59;;;;;;;2.67;1.40;;;25.80;71.50;;;;;;5131914;27;20035;-81
2022/08/05 00:57:25;;;;;;;4.32;1.45;;;25.70;72.00;;;;;;5129274;27;20027;-81
2022/08/05 00:59:51;;;;;;;3.63;1.58;;;25.70;72.50;;;;;;5120827;27;20059;-81
2022/08/05 01:02:16;;;;;;;2.15;1.42;;;25.60;72.70;;;;;;5127349;27;20027;-81
2022/08/05 01:04:42;;;;;;;3.30;1.55;;;25.60;72.70;;;;;;5126015;27;20059;-80
2022/08/05 01:07:08;;;;;;;4.18;1.52;;;25.60;72.80;;;;;;5121969;27;20039;-80
2022/08/05 01:09:34;;;;;;;3.25;1.48;;;25.60;72.90;;;;;;5121826;27;20114;-81
2022/08/05 01:12:05;;;;;;;3.33;1.13;;;25.60;73.10;;;;;;5131598;27;20110;-80
2022/08/05 01:14:39;;;;;;;3.20;1.65;;;25.50;73.40;;;;;;5132530;27;20035;-80
2022/08/05 01:17:08;;;;;;;2.35;1.23;;;25.50;73.80;;;;;;5127027;27;20039;-80
2022/08/05 01:19:51;;;;;;;3.92;1.50;;;25.50;74.20;;;;;;5127459;27;20031;-80
2022/08/05 01:22:35;;;;;;;5.60;1.60;;;25.40;74.60;;;;;;5117221;27;20035;-81
2022/08/05 01:25:34;;;;;;;2.45;1.30;;;25.40;74.80;;;;;;5126341;27;20110;-80
2022/08/05 01:28:34;;;;;;;2.30;1.65;;;25.30;75.40;;;;;;5125830;27;20023;-81
2022/08/05 01:31:13;;;;;;;6.53;1.23;;;25.20;75.80;;;;;;5125695;27;20064;-81
2022/08/05 01:34:00;;;;;;;6.38;1.50;;;25.20;76.40;;;;;;5128441;27;20511;-81
2022/08/05 01:36:31;;;;;;;2.42;1.42;;;25.10;76.80;;;;;;5129439;27;20030;-83
2022/08/05 01:38:58;;;;;;;5.50;1.75;;;25.10;77.70;;;;;;5117365;27;20055;-80
2022/08/05 01:41:26;;;;;;;2.92;1.40;;;25.00;78.30;;;;;;5127567;27;20035;-80
2022/08/05 01:43:53;;;;;;;4.00;1.60;;;24.90;78.50;;;;;;5122614;27;20064;-81
2022/08/05 01:46:20;;;;;;;5.88;1.75;;;24.90;78.80;;;;;;5125384;27;20035;-80
2022/08/05 01:48:46;;;;;;;9.18;1.70;;;24.90;79.50;;;;;;5120492;27;20043;-81
2022/08/05 01:51:13;;;;;;;5.78;1.83;;;24.90;80.40;;;;;;5123171;27;20377;-80
2022/08/05 01:53:39;;;;;;;8.02;2.33;;;24.70;81.20;;;;;;5120204;27;20065;-80
2022/08/05 01:56:08;;;;;;;2.90;1.98;;;24.70;82.00;;;;;;5126572;27;20050;-80
2022/08/05 01:58:34;;;;;;;4.32;1.67;;;24.70;82.30;;;;;;5130405;27;20046;-80
2022/08/05 02:01:01;;;;;;;6.18;2.00;;;24.70;82.90;;;;;;5128628;27;20027;-81
2022/08/05 02:03:32;;;;;;;2.85;1.52;;;24.60;83.40;;;;;;5125044;27;20035;-79
2022/08/05 02:06:04;;;;;;;1.75;1.20;;;24.60;83.60;;;;;;5127973;27;20488;-80
2022/08/05 02:08:31;;;;;;;3.70;1.77;;;24.60;84.20;;;;;;5131605;27;20471;-80
2022/08/05 02:11:03;;;;;;;4.28;1.90;;;24.60;84.50;;;;;;5130451;27;20389;-80
2022/08/05 02:13:44;;;;;;;4.90;1.95;;;24.60;84.80;;;;;;5118486;27;20023;-80
2022/08/05 02:16:19;;;;;;;4.38;1.70;;;24.60;85.50;;;;;;5121185;27;20049;-79
2022/08/05 02:18:50;;;;;;;2.72;1.63;;;24.50;85.60;;;;;;5131529;27;20038;-80
2022/08/05 02:21:19;;;;;;;3.65;1.83;;;24.50;86.50;;;;;;5127682;27;20089;-80
2022/08/05 02:23:50;;;;;;;2.95;1.85;;;24.50;87.50;;;;;;5122349;27;20036;-80
2022/08/05 02:26:22;;;;;;;3.60;1.73;;;24.40;87.70;;;;;;5119463;27;20533;-81
2022/08/05 02:28:48;;;;;;;3.53;1.63;;;24.40;88.40;;;;;;5119507;27;20054;-81
2022/08/05 02:31:20;;;;;;;3.13;1.73;;;24.30;89.10;;;;;;5129358;27;20056;-80
2022/08/05 02:33:55;;;;;;;5.70;2.00;;;24.30;89.40;;;;;;5131056;27;20110;-81
2022/08/05 02:36:22;;;;;;;4.57;1.40;;;24.20;89.90;;;;;;5125346;27;20023;-80
2022/08/05 02:38:49;;;;;;;4.50;1.73;;;24.20;90.10;;;;;;5127855;27;20031;-80
2022/08/05 02:41:16;;;;;;;2.53;1.42;;;24.20;90.40;;;;;;5131008;27;20027;-80
2022/08/05 02:43:43;;;;;;;3.55;1.98;;;24.20;90.60;;;;;;5130402;27;20023;-81
2022/08/05 02:46:15;;;;;;;5.47;1.63;;;24.20;90.70;;;;;;5128603;27;20029;-80
2022/08/05 02:48:41;;;;;;;2.95;1.70;;;24.10;90.90;;;;;;5129540;27;20042;-80
2022/08/05 02:51:07;;;;;;;1.58;1.20;;;24.10;91.00;;;;;;5129057;27;20438;-81
2022/08/05 02:53:34;;;;;;;2.55;1.80;;;24.10;91.10;;;;;;5130279;27;20110;-80
2022/08/05 02:56:00;;;;;;;3.40;1.90;;;24.10;91.20;;;;;;5128554;27;20031;-81
2022/08/05 02:58:26;;;;;;;4.00;1.65;;;24.00;91.40;;;;;;5121167;28;20031;-81
2022/08/05 03:00:54;;;;;;;3.00;1.80;;;24.00;91.60;;;;;;5123767;27;20533;-80
2022/08/05 03:03:20;;;;;;;6.13;2.17;;;24.00;91.70;;;;;;5124984;27;20033;-80
2022/08/05 03:05:47;;;;;;;13.13;3.38;;;24.00;91.90;;;;;;5126500;28;20488;-80
2022/08/05 03:08:13;;;;;;;4.28;1.63;;;23.90;92.10;;;;;;5129973;28;20117;-80
2022/08/05 03:10:41;;;;;;;2.58;1.80;;;23.90;92.20;;;;;;5130362;27;20118;-81
2022/08/05 03:13:15;;;;;;;2.67;1.63;;;23.90;92.20;;;;;;5130766;27;20043;-80
2022/08/05 03:15:42;;;;;;;6.75;2.03;;;23.80;92.30;;;;;;5130278;27;20095;-81
2022/08/05 03:18:07;;;;;;;4.22;1.95;;;23.80;92.50;;;;;;5130994;27;20071;-80
2022/08/05 03:20:33;;;;;;;3.92;1.95;;;23.80;92.60;;;;;;5129969;28;20058;-80
2022/08/05 03:22:59;;;;;;;7.47;2.00;;;23.80;92.80;;;;;;5126933;28;20038;-81
2022/08/05 03:25:25;;;;;;;2.78;1.92;;;23.70;92.90;;;;;;5122907;28;20027;-81
2022/08/05 03:27:50;;;;;;;4.32;2.08;;;23.70;93.10;;;;;;5128880;28;20031;-81
2022/08/05 03:30:16;;;;;;;6.28;1.63;;;23.60;93.30;;;;;;5129085;28;20119;-81
2022/08/05 03:32:42;;;;;;;6.65;2.08;;;23.60;93.40;;;;;;5129993;28;20027;-81
2022/08/05 03:35:08;;;;;;;8.18;2.50;;;23.50;93.50;;;;;;5130487;28;20036;-80
2022/08/05 03:37:33;;;;;;;5.30;1.90;;;23.50;93.70;;;;;;5121400;27;20031;-81
2022/08/05 03:39:59;;;;;;;3.22;1.92;;;23.50;93.90;;;;;;5119842;27;20106;-81
2022/08/05 03:42:25;;;;;;;3.60;2.03;;;23.40;94.00;;;;;;5116216;27;20354;-81
2022/08/05 03:44:50;;;;;;;4.18;1.63;;;23.30;94.10;;;;;;5110032;28;20032;-81
2022/08/05 03:47:16;;;;;;;3.45;2.53;;;23.30;94.30;;;;;;5119999;27;20032;-81
2022/08/05 03:49:42;;;;;;;5.85;1.98;;;23.30;94.50;;;;;;5125119;27;20034;-81
2022/08/05 03:52:18;;;;;;;3.85;1.80;;;23.20;94.60;;;;;;5126869;27;20051;-81
2022/08/05 03:54:55;;;;;;;3.17;2.00;;;23.20;94.50;;;;;;5114264;27;20027;-81
2022/08/05 03:57:25;;;;;;;4.72;1.90;;;23.20;94.60;;;;;;5111553;28;20023;-81
2022/08/05 04:00:10;;;;;;;6.75;2.15;;;23.20;94.70;;;;;;5127489;27;20023;-80
2022/08/05 04:02:37;;;;;;;8.40;2.10;;;23.20;94.80;;;;;;5127924;27;20027;-81
2022/08/05 04:05:04;;;;;;;6.35;2.42;;;23.10;94.80;;;;;;5123857;27;20031;-81
2022/08/05 04:07:30;;;;;;;4.30;2.25;;;23.20;94.90;;;;;;5133016;27;20027;-81
2022/08/05 04:09:56;;;;;;;4.53;2.03;;;23.20;94.90;;;;;;5123406;27;20495;-81
2022/08/05 04:12:22;;;;;;;6.43;2.17;;;23.20;94.90;;;;;;5124747;27;20024;-81
2022/08/05 04:14:48;;;;;;;7.53;2.63;;;23.10;95.00;;;;;;5123653;27;20045;-81
2022/08/05 04:17:13;;;;;;;4.57;2.20;;;23.20;95.10;;;;;;5123562;27;20433;-81
2022/08/05 04:19:47;;;;;;;5.95;2.20;;;23.10;95.30;;;;;;5125501;27;20043;-81
2022/08/05 04:22:13;;;;;;;9.43;2.33;;;23.10;95.20;;;;;;5123703;27;20034;-81
2022/08/05 04:24:40;;;;;;;3.70;2.35;;;23.10;95.30;;;;;;5125662;27;20034;-82
2022/08/05 04:27:05;;;;;;;2.60;1.77;;;23.10;95.40;;;;;;5125830;27;20030;-80
2022/08/05 04:29:31;;;;;;;3.63;2.00;;;23.10;95.50;;;;;;5125770;27;20027;-81
2022/08/05 04:31:56;;;;;;;3.22;2.03;;;23.00;95.60;;;;;;5121321;27;20043;-81
2022/08/05 04:34:22;;;;;;;3.80;1.95;;;23.00;95.80;;;;;;5124593;27;20065;-80
2022/08/05 04:36:47;;;;;;;8.52;2.58;;;23.00;95.80;;;;;;5122559;27;20031;-81
2022/08/05 04:39:13;;;;;;;5.35;1.95;;;22.90;95.80;;;;;;5123390;27;20027;-81
2022/08/05 04:41:39;;;;;;;5.32;2.15;;;23.00;95.90;;;;;;5124906;27;20118;-82
2022/08/05 04:44:05;;;;;;;6.75;1.80;;;22.90;96.00;;;;;;5123382;27;20127;-80
2022/08/05 04:46:30;;;;;;;7.25;2.00;;;22.90;96.00;;;;;;5118893;27;20031;-82
2022/08/05 04:48:56;;;;;;;4.95;2.17;;;23.00;96.00;;;;;;5123376;27;20031;-82
2022/08/05 04:51:21;;;;;;;2.92;1.80;;;23.00;96.00;;;;;;5124246;27;20755;-81
2022/08/05 04:53:47;;;;;;;5.78;2.15;;;23.00;96.00;;;;;;5123100;27;20035;-81
2022/08/05 04:56:13;;;;;;;4.03;1.88;;;23.00;95.90;;;;;;5122845;27;20092;-81
2022/08/05 04:58:39;;;;;;;3.08;1.75;;;23.10;95.80;;;;;;5115976;27;20388;-80
2022/08/05 05:01:05;;;;;;;6.13;2.28;;;23.10;95.70;;;;;;5123536;27;20405;-81
2022/08/05 05:03:31;;;;;;;10.30;1.85;;;23.00;95.50;;;;;;5123654;27;20100;-81
2022/08/05 05:05:57;;;;;;;3.88;1.90;;;23.00;95.60;;;;;;5114973;27;20035;-82
2022/08/05 05:08:22;;;;;;;4.20;2.00;;;23.00;95.60;;;;;;5128042;27;20027;-79
2022/08/05 05:10:47;;;;;;;9.35;1.52;;;23.00;95.70;;;;;;5127131;27;20043;-82
2022/08/05 05:13:15;;;;;;;4.07;2.05;;;22.90;95.70;;;;;;5123311;27;20070;-81
2022/08/05 05:15:42;;;;;;;6.35;2.35;;;22.90;95.90;;;;;;5129393;27;20038;-81
2022/08/05 05:18:08;;;;;;;5.68;1.65;;;22.90;96.10;;;;;;5130084;27;20599;-82
2022/08/05 05:20:34;;;;;;;5.75;1.80;;;22.90;96.40;;;;;;5119554;27;20027;-80
2022/08/05 05:23:03;;;;;;;3.05;2.00;;;22.90;96.60;;;;;;5125014;27;20502;-81
2022/08/05 05:25:29;;;;;;;4.72;2.28;;;22.80;97.00;;;;;;5126494;27;20031;-80
2022/08/05 05:27:54;;;;;;;4.72;3.03;;;22.80;97.20;;;;;;5121649;27;20107;-79
2022/08/05 05:30:20;;;;;;;5.35;2.50;;;22.90;97.50;;;;;;5118339;27;20047;-80
2022/08/05 05:32:46;;;;;;;4.43;2.42;;;22.80;97.70;;;;;;5126027;27;20367;-80
2022/08/05 05:35:12;;;;;;;4.25;2.42;;;22.70;97.90;;;;;;5122248;27;20035;-79
2022/08/05 05:37:59;;;;;;;5.28;2.08;;;22.70;98.10;;;;;;5128064;27;20514;-80
2022/08/05 05:40:26;;;;;;;5.20;2.75;;;22.70;98.20;;;;;;5128382;27;20094;-81
2022/08/05 05:42:52;;;;;;;4.43;2.25;;;22.70;98.30;;;;;;5126731;27;20032;-80
2022/08/05 05:45:18;;;;;;;6.07;3.83;;;22.80;98.40;;;;;;5124069;27;20039;-80
2022/08/05 05:47:45;;;;;;;9.50;2.60;;;22.80;98.20;;;;;;5119522;27;20090;-83
2022/08/05 05:50:13;;;;;;;5.63;2.55;;;22.90;98.20;;;;;;5123150;27;20031;-81
2022/08/05 05:52:39;;;;;;;7.97;2.75;;;23.00;98.10;;;;;;5121346;27;20062;-81
2022/08/05 05:55:10;;;;;;;6.20;2.75;;;23.00;98.10;;;;;;5119434;27;20789;-82
2022/08/05 05:57:36;;;;;;;4.93;2.33;;;23.00;98.00;;;;;;5120078;27;20042;-81
2022/08/05 06:00:04;;;;;;;5.93;3.33;;;23.10;98.00;;;;;;5126481;27;20046;-80
2022/08/05 06:02:29;;;;;;;4.30;2.40;;;23.10;97.80;;;;;;5120098;27;20642;-81
2022/08/05 06:04:55;;;;;;;9.80;2.80;;;23.20;97.90;;;;;;5123896;27;20114;-81
2022/08/05 06:07:20;;;;;;;3.67;2.33;;;23.20;97.80;;;;;;5128448;27;20031;-80
2022/08/05 06:09:46;;;;;;;6.28;2.38;;;23.30;97.70;;;;;;5125245;27;20057;-80
2022/08/05 06:12:11;;;;;;;6.25;2.50;;;23.40;97.70;;;;;;5122674;27;20468;-81
2022/08/05 06:14:37;;;;;;;6.80;2.05;;;23.60;97.40;;;;;;5115481;27;20054;-80
2022/08/05 06:17:02;;;;;;;6.57;2.65;;;23.70;97.00;;;;;;5119313;27;20134;-81
2022/08/05 06:19:28;;;;;;;5.97;2.22;;;23.80;97.00;;;;;;5122686;27;20023;-81
2022/08/05 06:21:54;;;;;;;8.73;1.88;;;23.90;96.80;;;;;;5121136;27;20031;-81
2022/08/05 06:24:19;;;;;;;4.43;1.92;;;24.00;96.70;;;;;;5123441;27;20535;-80
2022/08/05 06:26:45;;;;;;;4.57;1.45;;;24.20;96.30;;;;;;5118759;27;20035;-81
2022/08/05 06:29:11;;;;;;;4.78;2.38;;;24.20;96.40;;;;;;5121812;27;20031;-81
2022/08/05 06:31:36;;;;;;;5.32;2.45;;;24.20;96.00;;;;;;5121165;27;20043;-81
2022/08/05 06:34:03;;;;;;;5.07;2.22;;;24.20;96.10;;;;;;5121278;27;20030;-81
2022/08/05 06:36:29;;;;;;;11.13;3.22;;;24.20;96.40;;;;;;5117546;27;20053;-81
2022/08/05 06:38:54;;;;;;;2.70;1.73;;;24.10;96.30;;;;;;5121720;27;20031;-81
2022/08/05 06:41:20;;;;;;;3.50;1.65;;;24.10;96.30;;;;;;5125818;27;20039;-80
2022/08/05 06:43:46;;;;;;;4.40;1.80;;;24.20;96.40;;;;;;5124782;27;20055;-82
2022/08/05 06:46:12;;;;;;;4.13;2.50;;;24.10;96.30;;;;;;5125557;27;20039;-81
2022/08/05 06:48:37;;;;;;;4.07;2.13;;;24.10;96.30;;;;;;5126308;27;20104;-79
2022/08/05 06:51:03;;;;;;;3.70;1.80;;;24.10;96.40;;;;;;5113666;27;20115;-80
2022/08/05 06:53:29;;;;;;;7.50;2.08;;;24.20;96.30;;;;;;5122726;27;20027;-80
2022/08/05 06:55:59;;;;;;;7.40;2.28;;;24.30;96.40;;;;;;5116935;27;20047;-81
2022/08/05 06:58:26;;;;;;;4.32;2.30;;;24.30;96.30;;;;;;5119753;27;20127;-82
2022/08/05 07:00:52;;;;;;;5.80;2.20;;;24.40;96.40;;;;;;5119934;27;20034;-80
2022/08/05 07:03:17;;;;;;;8.55;2.08;;;24.50;96.60;;;;;;5118177;27;20037;-82
2022/08/05 07:05:43;;;;;;;5.10;1.77;;;24.50;96.40;;;;;;5117350;27;20039;-80
2022/08/05 07:08:09;;;;;;;4.40;1.90;;;24.50;96.30;;;;;;5110148;27;20041;-81
2022/08/05 07:10:35;;;;;;;3.80;1.92;;;24.50;96.20;;;;;;5115897;27;20050;-80
2022/08/05 07:18:28;;;;;;;5.68;2.60;;;24.70;95.90;;;;;;5118682;27;20039;-80
2022/08/05 07:20:54;;;;;;;6.72;2.65;;;24.80;95.90;;;;;;5118309;27;20027;-80
2022/08/05 07:23:19;;;;;;;6.65;2.55;;;24.80;95.70;;;;;;5119156;27;20161;-82
2022/08/05 07:25:45;;;;;;;4.78;2.70;;;24.90;95.60;;;;;;5116464;27;20047;-79
2022/08/05 07:28:10;;;;;;;10.57;2.60;;;25.00;95.50;;;;;;5118124;27;20118;-80
2022/08/05 07:30:36;;;;;;;5.65;2.28;;;25.10;95.50;;;;;;5116857;27;20393;-80
2022/08/05 07:33:04;;;;;;;3.85;2.40;;;25.10;95.40;;;;;;5120507;27;20023;-80
2022/08/05 07:35:29;;;;;;;3.33;2.60;;;25.20;95.10;;;;;;5121753;27;20111;-81
2022/08/05 07:37:55;;;;;;;4.78;2.10;;;25.20;94.90;;;;;;5122279;27;20031;-81
2022/08/05 07:40:21;;;;;;;3.83;1.92;;;25.30;94.80;;;;;;5121938;27;20051;-78
2022/08/05 07:42:47;;;;;;;5.97;2.17;;;25.30;95.00;;;;;;5123008;27;20142;-80
2022/08/05 07:45:14;;;;;;;4.22;2.53;;;25.40;95.10;;;;;;5123181;27;20691;-81
2022/08/05 07:47:40;;;;;;;5.38;2.13;;;25.40;95.10;;;;;;5125689;27;20413;-80
2022/08/05 07:50:06;;;;;;;7.28;2.13;;;25.50;95.00;;;;;;5127724;27;20034;-80
2022/08/05 07:52:31;;;;;;;5.95;2.40;;;25.60;94.90;;;;;;5122514;27;20363;-80
2022/08/05 07:54:57;;;;;;;4.00;2.28;;;25.70;94.20;;;;;;5127894;27;20031;-82
2022/08/05 07:57:22;;;;;;;4.93;1.95;;;25.70;94.10;;;;;;5122576;27;20063;-80
2022/08/05 07:59:48;;;;;;;7.30;1.85;;;25.70;94.30;;;;;;5121539;27;20499;-80
2022/08/05 08:02:14;;;;;;;3.85;2.22;;;25.80;94.00;;;;;;5124184;27;20041;-80
2022/08/05 08:04:39;;;;;;;2.33;1.83;;;25.80;94.00;;;;;;5125395;27;20035;-79
2022/08/05 08:07:05;;;;;;;6.88;1.85;;;25.80;94.10;;;;;;5118920;27;20044;-80
2022/08/05 08:09:31;;;;;;;5.32;1.77;;;25.90;93.60;;;;;;5120703;27;20031;-83
2022/08/05 08:11:56;;;;;;;5.68;1.80;;;26.00;93.50;;;;;;5123115;27;20029;-81
2022/08/05 08:14:22;;;;;;;5.57;1.98;;;26.10;93.40;;;;;;5132346;27;20655;-81
2022/08/05 08:16:47;;;;;;;5.35;2.50;;;26.10;93.30;;;;;;5124965;27;20120;-81
2022/08/05 08:19:13;;;;;;;5.68;2.13;;;26.10;93.20;;;;;;5125256;27;20031;-82
2022/08/05 08:21:38;;;;;;;5.55;2.05;;;26.10;93.20;;;;;;5128166;27;20035;-81
2022/08/05 08:24:04;;;;;;;4.20;1.83;;;26.10;93.30;;;;;;5122837;27;20027;-83
2022/08/05 08:26:30;;;;;;;6.25;2.33;;;26.10;93.30;;;;;;5121138;27;20031;-80
2022/08/05 08:28:58;;;;;;;8.38;2.08;;;26.10;93.40;;;;;;5110981;27;20031;-82
2022/08/05 08:31:23;;;;;;;5.30;1.70;;;26.20;93.00;;;;;;5121569;27;20023;-82
2022/08/05 08:33:49;;;;;;;5.65;1.83;;;26.20;93.10;;;;;;5132437;27;20559;-81
2022/08/05 08:36:14;;;;;;;5.85;2.17;;;26.20;93.00;;;;;;5122183;27;20027;-82
2022/08/05 08:38:40;;;;;;;5.32;1.55;;;26.30;93.10;;;;;;5128414;27;20038;-80
2022/08/05 08:41:09;;;;;;;5.93;2.00;;;26.40;92.70;;;;;;5132062;27;20464;-81
2022/08/05 08:43:39;;;;;;;5.28;1.60;;;26.60;92.70;;;;;;5131191;27;20763;-80
2022/08/05 08:46:05;;;;;;;2.55;1.52;;;26.80;92.40;;;;;;5129575;27;20026;-81
2022/08/05 08:48:32;;;;;;;6.07;2.28;;;27.00;91.80;;;;;;5131374;27;20468;-84
2022/08/05 08:50:59;;;;;;;6.47;1.80;;;27.10;91.20;;;;;;5130592;27;20516;-82
2022/08/05 08:53:26;;;;;;;2.92;1.40;;;27.20;91.10;;;;;;5131983;27;20484;-80
2022/08/05 08:55:52;;;;;;;6.20;2.08;;;27.20;91.40;;;;;;5128136;27;20385;-82
2022/08/05 08:58:18;;;;;;;10.52;1.77;;;27.20;91.20;;;;;;5129172;27;20053;-80
2022/08/05 09:00:44;;;;;;;2.75;1.50;;;27.10;91.40;;;;;;5129503;27;20031;-80
2022/08/05 09:03:10;;;;;;;3.10;1.73;;;27.10;91.20;;;;;;5125292;27;20043;-80
2022/08/05 09:05:36;;;;;;;3.85;1.23;;;27.20;91.40;;;;;;5126818;27;20063;-81
2022/08/05 09:08:02;;;;;;;4.40;1.75;;;27.20;91.20;;;;;;5126203;27;20058;-80
2022/08/05 09:10:27;;;;;;;4.00;1.20;;;27.20;92.60;;;;;;5125967;27;20057;-81
2022/08/05 09:12:53;;;;;;;3.05;1.52;;;27.30;92.00;;;;;;5130489;27;20090;-83
2022/08/05 09:15:19;;;;;;;4.50;1.50;;;27.40;91.10;;;;;;5130211;27;20038;-80
2022/08/05 09:17:44;;;;;;;3.05;1.40;;;27.50;90.70;;;;;;5130033;27;20046;-82
2022/08/05 09:20:11;;;;;;;2.70;1.45;;;27.50;89.80;;;;;;5126363;27;20035;-81
2022/08/05 09:23:07;;;;;;;2.67;1.20;;;27.60;90.20;;;;;;5123653;27;20420;-81
2022/08/05 09:25:33;;;;;;;3.47;1.40;;;27.80;90.20;;;;;;5128877;27;20114;-82
2022/08/05 09:28:13;;;;;;;5.43;1.70;;;28.00;89.80;;;;;;5126901;27;20031;-82
2022/08/05 09:30:49;;;;;;;2.85;1.15;;;28.10;88.40;;;;;;5127308;27;20485;-83
2022/08/05 09:33:14;;;;;;;4.22;1.52;;;28.30;88.90;;;;;;5126488;27;20091;-82
2022/08/05 09:35:55;;;;;;;3.03;1.30;;;28.50;87.30;;;;;;5124813;27;20039;-84
2022/08/05 09:38:21;;;;;;;3.58;1.58;;;28.70;88.60;;;;;;5127753;27;20084;-81
2022/08/05 09:40:46;;;;;;;3.55;1.20;;;28.80;86.60;;;;;;5116563;27;20031;-82
2022/08/05 09:43:36;;;;;;;1.75;1.20;;;28.80;86.00;;;;;;5116541;27;20065;-84
2022/08/05 09:46:05;;;;;;;3.63;1.38;;;28.70;87.40;;;;;;5127717;27;20126;-83
2022/08/05 09:48:33;;;;;;;2.15;1.17;;;28.60;86.50;;;;;;5125004;27;20481;-82
2022/08/05 09:50:58;;;;;;;5.45;1.45;;;28.40;86.10;;;;;;5121870;27;20023;-84
2022/08/05 09:53:25;;;;;;;1.98;1.27;;;28.30;86.90;;;;;;5119231;27;20096;-82
2022/08/05 09:55:57;;;;;;;2.03;1.27;;;28.30;87.00;;;;;;5127489;27;20031;-84
2022/08/05 09:58:24;;;;;;;7.95;1.50;;;28.20;86.70;;;;;;5125938;27;20034;-83
2022/08/05 10:00:52;;;;;;;2.22;1.08;;;28.20;87.00;;;;;;5127601;27;20023;-81
2022/08/05 10:03:17;;;;;;;4.80;1.30;;;28.20;87.20;;;;;;5117152;27;20019;-82
2022/08/05 10:05:43;;;;;;;3.75;1.88;;;28.30;88.20;;;;;;5124299;27;20038;-82
2022/08/05 10:08:09;;;;;;;3.63;1.38;;;28.50;88.40;;;;;;5127401;27;20121;-83
2022/08/05 10:10:44;;;;;;;5.40;1.02;;;28.80;86.20;;;;;;5129329;27;20114;-83
2022/08/05 10:13:10;;;;;;;2.15;1.35;;;29.20;88.60;;;;;;5108420;28;20108;-82
2022/08/05 10:15:38;;;;;;;5.68;1.33;;;29.50;83.30;;;;;;5109312;28;20432;-84
2022/08/05 10:18:09;;;;;;;3.88;1.00;;;29.90;83.40;;;;;;5121559;27;20084;-82
2022/08/05 10:20:38;;;;;;;6.85;1.20;;;30.10;82.50;;;;;;5116256;27;20040;-83
2022/08/05 10:23:04;;;;;;;2.40;1.05;;;30.40;81.20;;;;;;5118918;27;20031;-83
2022/08/05 10:25:29;;;;;;;3.90;1.48;;;30.60;82.10;;;;;;5128339;27;20031;-83
2022/08/05 10:27:57;;;;;;;2.47;1.35;;;30.70;79.10;;;;;;5127651;27;20129;-83
2022/08/05 10:30:22;;;;;;;1.83;1.13;;;30.70;78.50;;;;;;5126929;27;20037;-82
2022/08/05 10:32:49;;;;;;;3.13;1.50;;;30.50;78.90;;;;;;5125026;27;20371;-88
2022/08/05 10:35:15;;;;;;;2.95;1.13;;;30.40;79.30;;;;;;5128879;27;20023;-89
2022/08/05 10:37:41;;;;;;;2.78;1.08;;;30.40;80.20;;;;;;5129970;27;20092;-86
2022/08/05 10:40:34;;;;;;;3.92;1.17;;;30.30;80.60;;;;;;5127512;27;20045;-81
2022/08/05 10:43:28;;;;;;;;;;;30.10;80.40;;;;;;5125546;27;20047;-82
2022/08/05 10:46:00;;;;;;;3.67;1.30;;;29.90;81.40;;;;;;5110738;27;19945;-84
2022/08/05 10:48:40;;;;;;;4.70;1.52;;;29.80;81.10;;;;;;5124137;27;20046;-84
2022/08/05 10:51:14;;;;;;;2.75;1.55;;;29.90;81.80;;;;;;5125041;27;20118;-84
2022/08/05 10:53:58;;;;;;;2.80;1.77;;;29.90;82.30;;;;;;5129949;27;20507;-83
2022/08/05 10:56:26;;;;;;;4.22;1.52;;;30.00;81.40;;;;;;5128150;27;20454;-83
2022/08/05 10:58:51;;;;;;;3.63;1.58;;;30.00;82.60;;;;;;5126775;27;20023;-82
2022/08/05 11:01:27;;;;;;;2.20;1.35;;;30.10;81.30;;;;;;5125629;28;20711;-82
2022/08/05 11:04:11;;;;;;;3.50;1.42;;;30.00;81.10;;;;;;5117767;27;20027;-83
2022/08/05 11:06:56;;;;;;;3.15;1.58;;;30.00;82.10;;;;;;5126501;27;20027;-83
2022/08/05 11:09:23;;;;;;;2.97;1.13;;;30.00;82.40;;;;;;5132203;27;20023;-84
2022/08/05 11:11:50;;;;;;;4.15;1.20;;;30.20;81.80;;;;;;5130896;27;20103;-85
2022/08/05 11:14:30;;;;;;;2.75;1.80;;;30.30;82.80;;;;;;5136575;27;20054;-86
2022/08/05 11:17:26;;;;;;;2.03;1.40;;;30.40;82.40;;;;;;5134964;27;20034;-83
2022/08/05 11:19:54;;;;;;;4.45;1.25;;;30.70;81.20;;;;;;5132410;27;20102;-85
2022/08/05 11:22:50;;;;;;;2.53;1.75;;;30.80;81.10;;;;;;5132613;27;20031;-83
2022/08/05 11:25:32;;;;;;;3.33;1.40;;;31.20;84.70;;;;;;5131101;27;20046;-84
2022/08/05 11:28:10;;;;;;;4.05;1.38;;;31.40;78.30;;;;;;5129052;27;20135;-83
2022/08/05 11:30:54;;;;;;;2.65;1.42;;;31.40;78.00;;;;;;5125676;27;20029;-83
2022/08/05 11:33:31;;;;;;;6.55;1.73;;;31.50;77.60;;;;;;5130735;27;20080;-83
2022/08/05 11:36:08;;;;;;;3.75;1.48;;;31.60;79.30;;;;;;5127446;27;20031;-84
2022/08/05 11:38:42;;;;;;;3.80;1.50;;;31.80;79.50;;;;;;5126947;27;20172;-83
2022/08/05 11:41:19;;;;;;;4.45;1.48;;;32.10;77.30;;;;;;5128087;27;20031;-85
2022/08/05 11:43:55;;;;;;;3.35;1.20;;;32.30;76.10;;;;;;5125931;27;20714;-85
2022/08/05 11:46:29;;;;;;;2.47;1.50;;;32.60;78.70;;;;;;5129163;27;20570;-85
2022/08/05 11:48:55;;;;;;;4.70;1.95;;;32.70;75.60;;;;;;5117481;27;20035;-84
2022/08/05 11:51:22;;;;;;;4.55;2.28;;;32.90;75.00;;;;;;5130364;27;20582;-83
2022/08/05 11:53:48;;;;;;;7.65;1.83;;;33.10;73.20;;;;;;5117526;27;20490;-84
2022/08/05 11:56:15;;;;;;;3.70;1.58;;;33.10;74.80;;;;;;5127551;27;20091;-89
2022/08/05 11:58:43;;;;;;;5.50;1.98;;;33.10;74.90;;;;;;5128779;27;20027;-84
2022/08/05 12:01:10;;;;;;;3.17;1.30;;;33.20;72.00;;;;;;5131300;27;20035;-91
2022/08/05 12:03:51;;;;;;;2.83;1.40;;;33.10;71.70;;;;;;5126246;27;20030;-84
2022/08/05 12:06:19;;;;;;;4.72;1.30;;;33.10;73.50;;;;;;5129180;27;20029;-81
2022/08/05 12:08:47;;;;;;;3.25;1.50;;;33.20;72.80;;;;;;5128280;27;20122;-84
2022/08/05 12:11:18;;;;;;;3.47;1.05;;;33.30;71.80;;;;;;5130832;27;20035;-84
2022/08/05 12:13:55;;;;;;;3.67;1.40;;;33.30;71.00;;;;;;5133687;27;20068;-82
2022/08/05 12:16:22;;;;;;;3.60;1.40;;;32.90;70.70;;;;;;5128749;27;20034;-87
2022/08/05 12:18:48;;;;;;;2.85;1.63;;;33.00;71.30;;;;;;5116740;27;20516;-88
2022/08/05 12:21:16;;;;;;;2.45;1.40;;;33.10;71.70;;;;;;5109715;28;20035;-87
2022/08/05 12:24:04;;;;;;;5.80;1.75;;;33.20;70.50;;;;;;5112023;28;20096;-86
2022/08/05 12:27:00;;;;;;;2.47;1.75;;;33.40;71.10;;;;;;5112251;28;20036;-86
2022/08/05 12:29:27;;;;;;;2.38;1.40;;;33.60;71.20;;;;;;5099466;28;20032;-86
2022/08/05 12:31:55;;;;;;;3.55;1.30;;;33.50;69.40;;;;;;5113799;28;20719;-87
2022/08/05 12:34:30;;;;;;;4.82;1.27;;;33.70;69.70;;;;;;5112899;28;20122;-86
2022/08/05 12:37:06;;;;;;;3.80;1.63;;;33.70;69.30;;;;;;5113928;28;20079;-87
2022/08/05 12:39:32;;;;;;;3.80;1.63;;;33.70;69.10;;;;;;5114273;28;20020;-87
2022/08/05 12:41:58;;;;;;;1.85;1.27;;;33.60;68.10;;;;;;5113141;28;20023;-86
2022/08/05 12:44:24;;;;;;;2.50;1.75;;;33.40;69.90;;;;;;5114002;28;20031;-88
2022/08/05 12:46:54;;;;;;;3.63;1.40;;;33.30;69.50;;;;;;5114109;28;20035;-86
2022/08/05 12:49:20;;;;;;;2.22;1.48;;;33.10;69.90;;;;;;5112903;28;20038;-86
2022/08/05 12:51:56;;;;;;;2.50;1.35;;;32.90;69.00;;;;;;5114030;28;20075;-86
2022/08/05 12:54:27;;;;;;;3.70;1.58;;;32.70;69.40;;;;;;5114302;28;20094;-85
2022/08/05 12:57:00;;;;;;;2.33;1.30;;;32.50;70.10;;;;;;5112388;28;20020;-86
2022/08/05 12:59:42;;;;;;;4.35;1.70;;;32.50;71.00;;;;;;5113001;28;20024;-92
2022/08/05 13:02:10;;;;;;;4.00;1.60;;;32.50;70.50;;;;;;5114128;28;20094;-86